This is the latest recevied weather packets stored in our database for station/object TA2EE-10. If no packets are shown the sender has not sent any weather packets the latest 10 day(s).
| Time | Temp. | Humidity | Pressure | Rain* | Wind** | Luminosity | Snow |
|---|---|---|---|---|---|---|---|
| 1787836906 | 39.44° C | 19% | 912 hPa | - | - | 0 W/m² | - |
| 1787834781 | 39.44° C | 19% | 912 hPa | - | - | 0 W/m² | - |
| 1787832659 | 40° C | 20% | 912 hPa | - | - | 0 W/m² | - |
| 1787832600 | 40° C | 20% | 913 hPa | - | - | 0 W/m² | - |
| 1787830477 | 40.56° C | 20% | 913 hPa | - | - | 0 W/m² | - |
| 1787828354 | 41.11° C | 17% | 913 hPa | - | - | 0 W/m² | - |
| 1787826231 | 40° C | 19% | 913 hPa | - | - | 0 W/m² | - |
| 1787824109 | 38.89° C | 20% | 914 hPa | - | - | 0 W/m² | - |
| 1787821983 | 37.78° C | 22% | 914 hPa | - | - | 0 W/m² | - |
| 1787819860 | 36.11° C | 23% | 914 hPa | - | - | 0 W/m² | - |
| 1787817738 | 36.67° C | 24% | 914 hPa | - | - | 0 W/m² | - |
| 1787815616 | 36.67° C | 24% | 915 hPa | - | - | 0 W/m² | - |
| 1787813486 | 37.78° C | 23% | 915 hPa | - | - | 0 W/m² | - |
| 1787811364 | 40° C | 20% | 915 hPa | - | - | 0 W/m² | - |
| 1787809242 | 38.33° C | 22% | 914 hPa | - | - | 0 W/m² | - |
| 1787807119 | 33.89° C | 27% | 914 hPa | - | - | 0 W/m² | - |
| 1787804997 | 31.11° C | 33% | 914 hPa | - | - | 0 W/m² | - |
| 1787802875 | 31.11° C | 34% | 914 hPa | - | - | 0 W/m² | - |
| 1787800753 | 31.11° C | 33% | 914 hPa | - | - | 0 W/m² | - |
| 1787798631 | 31.11° C | 33% | 914 hPa | - | - | 0 W/m² | - |
| 1787796509 | 31.67° C | 32% | 914 hPa | - | - | 0 W/m² | - |
| 1787794387 | 31.67° C | 32% | 914 hPa | - | - | 0 W/m² | - |
| 1787792265 | 31.67° C | 32% | 914 hPa | - | - | 0 W/m² | - |
| 1787792197 | 31.67° C | 32% | 914 hPa | - | - | 0 W/m² | - |
| 1787790074 | 32.22° C | 31% | 914 hPa | - | - | 0 W/m² | - |
* Rain since midnight (hover to see other rain measurements)
** Current wind speed in m/s (hover to see current wind gust speed)